Time;durP1;ratioP1;P1;durP2;ratioP2;P2;SDS_P1;SDS_P2;PMS_P1;PMS_P2;Temp;Humidity;BMP_temperature;BMP_pressure;BME280_temperature;BME280_humidity;BME280_pressure;Samples;Min_cycle;Max_cycle;Signal;HPM_P1;HPM_P2
2022/10/14 00:00:59;;;;;;;;;;;;;;;;;;5151293;27;19966;-80
2022/10/14 00:03:27;;;;;;;;;;;;;;;;;;5151000;27;20067;-75
2022/10/14 00:05:55;;;;;;;;;;;;;;;;;;5147832;27;20018;-77
2022/10/14 00:08:22;;;;;;;;;;;;;;;;;;5164661;27;20058;-76
2022/10/14 00:10:50;;;;;;;;;;;;;;;;;;5148899;27;19923;-77
2022/10/14 00:13:17;;;;;;;;;;;;;;;;;;5162597;27;20188;-77
2022/10/14 00:15:44;;;;;;;;;;;;;;;;;;5148607;27;19970;-76
2022/10/14 00:18:12;;;;;;;;;;;;;;;;;;5142519;27;19934;-75
2022/10/14 00:20:39;;;;;;;;;;;;;;;;;;5141710;27;20469;-74
2022/10/14 00:23:07;;;;;;;;;;;;;;;;;;5127068;27;19973;-77
2022/10/14 00:25:35;;;;;;;;;;;;;;;;;;5148798;27;19926;-74
2022/10/14 00:28:03;;;;;;;;;;;;;;;;;;5145915;27;20013;-75
2022/10/14 00:30:30;;;;;;;;;;;;;;;;;;5146158;27;19923;-75
2022/10/14 00:32:59;;;;;;;;;;;;;;;;;;5117788;27;19927;-75
2022/10/14 00:35:26;;;;;;;;;;;;;;;;;;5145364;27;19923;-76
2022/10/14 00:37:54;;;;;;;;;;;;;;;;;;5144898;27;20373;-78
2022/10/14 00:40:28;;;;;;;;;;;;;;;;;;5160838;22;19929;-71
2022/10/14 00:42:56;;;;;;;;;;;;;;;;;;5109820;27;20014;-72
2022/10/14 00:45:23;;;;;;;;;;;;;;;;;;5116432;27;20378;-73
2022/10/14 00:47:54;;;;;;;;;;;;;;;;;;5100271;27;19973;-72
2022/10/14 00:50:22;;;;;;;;;;;;;;;;;;5098480;27;19926;-73
2022/10/14 00:52:51;;;;;;;;;;;;;;;;;;5085412;27;20730;-72
2022/10/14 00:55:18;;;;;;;;;;;;;;;;;;5096699;27;19954;-72
2022/10/14 00:57:46;;;;;;;;;;;;;;;;;;5082847;27;20304;-73
2022/10/14 01:00:13;;;;;;;;;;;;;;;;;;5118586;27;19934;-72
2022/10/14 01:02:41;;;;;;;;;;;;;;;;;;5098239;27;19965;-73
2022/10/14 01:05:09;;;;;;;;;;;;;;;;;;5102694;27;20393;-73
2022/10/14 01:07:36;;;;;;;;;;;;;;;;;;5084949;27;19923;-73
2022/10/14 01:10:05;;;;;;;;;;;;;;;;;;5118234;27;20398;-73
2022/10/14 01:12:33;;;;;;;;;;;;;;;;;;5101874;27;19934;-73
2022/10/14 01:15:03;;;;;;;;;;;;;;;;;;5097602;27;19923;-73
2022/10/14 01:17:31;;;;;;;;;;;;;;;;;;5081832;27;20708;-73
2022/10/14 01:19:59;;;;;;;;;;;;;;;;;;5097218;27;20369;-73
2022/10/14 01:22:26;;;;;;;;;;;;;;;;;;5078972;27;20481;-74
2022/10/14 01:24:55;;;;;;;;;;;;;;;;;;5097523;27;20809;-74
2022/10/14 01:27:23;;;;;;;;;;;;;;;;;;5119807;27;19926;-73
2022/10/14 01:29:51;;;;;;;;;;;;;;;;;;5115054;27;19923;-73
2022/10/14 01:32:18;;;;;;;;;;;;;;;;;;5097257;27;20046;-73
2022/10/14 01:34:46;;;;;;;;;;;;;;;;;;5097469;27;19977;-74
2022/10/14 01:37:14;;;;;;;;;;;;;;;;;;5096281;27;19930;-73
2022/10/14 01:39:41;;;;;;;;;;;;;;;;;;5119404;27;20362;-73
2022/10/14 01:42:09;;;;;;;;;;;;;;;;;;5091299;27;20471;-73
2022/10/14 01:44:37;;;;;;;;;;;;;;;;;;5082714;27;20022;-73
2022/10/14 01:47:08;;;;;;;;;;;;;;;;;;5084834;27;21484;-73
2022/10/14 01:49:35;;;;;;;;;;;;;;;;;;5085684;27;20439;-74
2022/10/14 01:52:03;;;;;;;;;;;;;;;;;;5067193;28;19932;-74
2022/10/14 01:54:31;;;;;;;;;;;;;;;;;;5081692;27;19960;-74
2022/10/14 01:56:59;;;;;;;;;;;;;;;;;;5068791;27;19946;-75
2022/10/14 01:59:26;;;;;;;;;;;;;;;;;;5068432;27;19924;-74
2022/10/14 02:01:54;;;;;;;;;;;;;;;;;;5105705;27;19932;-73
2022/10/14 02:04:21;;;;;;;;;;;;;;;;;;5085207;27;19924;-74
2022/10/14 02:06:50;;;;;;;;;;;;;;;;;;5065642;27;20412;-74
2022/10/14 02:09:18;;;;;;;;;;;;;;;;;;5068284;27;20394;-74
2022/10/14 02:11:45;;;;;;;;;;;;;;;;;;5061473;27;20180;-74
2022/10/14 02:14:20;;;;;;;1999.90;999.90;;;;;;;;;;5099231;27;20443;-74
2022/10/14 02:16:49;;;;;;;1999.90;999.90;;;;;;;;;;5080685;27;20235;-74
2022/10/14 02:19:24;;;;;;;1999.90;999.90;;;;;;;;;;5082091;27;20770;-74
2022/10/14 02:21:54;;;;;;;1999.90;999.90;;;;;;;;;;5064285;27;20385;-73
2022/10/14 02:24:26;;;;;;;1999.90;999.90;;;;;;;;;;5097857;27;20410;-73
2022/10/14 02:26:56;;;;;;;1999.90;999.90;;;;;;;;;;5083793;27;21776;-73
2022/10/14 02:29:26;;;;;;;1999.90;999.90;;;;;;;;;;5090155;27;20402;-73
2022/10/14 02:31:54;;;;;;;1999.90;999.90;;;;;;;;;;5077363;27;20405;-72
2022/10/14 02:34:24;;;;;;;1999.90;999.90;;;;;;;;;;5063217;27;20397;-73
2022/10/14 02:36:53;;;;;;;1999.90;999.90;;;;;;;;;;5064215;27;20383;-72
2022/10/14 02:39:24;;;;;;;1999.90;999.90;;;;;;;;;;5070155;27;20413;-72
2022/10/14 02:41:52;;;;;;;1999.90;999.90;;;;;;;;;;5082522;27;20485;-73
2022/10/14 02:44:20;;;;;;;1999.90;999.90;;;;;;;;;;5087112;27;20437;-73
2022/10/14 02:46:49;;;;;;;1999.90;999.90;;;;;;;;;;5082049;27;20425;-73
2022/10/14 02:49:17;;;;;;;1999.90;999.90;;;;;;;;;;5063086;27;21660;-73
2022/10/14 02:51:45;;;;;;;1999.90;999.90;;;;;;;;;;5102436;27;20423;-73
2022/10/14 02:54:13;;;;;;;1999.90;999.90;;;;;;;;;;5101327;27;20411;-73
2022/10/14 02:56:41;;;;;;;1999.90;999.90;;;;;;;;;;5064857;27;21142;-72
2022/10/14 02:59:09;;;;;;;1999.90;999.90;;;;;;;;;;5081757;27;20870;-73
2022/10/14 03:01:38;;;;;;;1999.90;999.90;;;;;;;;;;5063492;27;20533;-74
2022/10/14 03:04:10;;;;;;;1999.90;999.90;;;;;;;;;;5089743;27;21323;-75
2022/10/14 03:06:39;;;;;;;1999.90;999.90;;;;;;;;;;5088301;27;20869;-74
2022/10/14 03:09:08;;;;;;;1999.90;999.90;;;;;;;;;;5076107;27;20492;-74
2022/10/14 03:11:39;;;;;;;1999.90;999.90;;;;;;;;;;5066771;27;20506;-74
2022/10/14 03:14:13;;;;;;;1999.90;999.90;;;;;;;;;;5066150;27;20548;-73
2022/10/14 03:16:56;;;;;;;1999.90;999.90;;;;;;;;;;5085491;27;21017;-72
2022/10/14 03:19:28;;;;;;;1999.90;999.90;;;;;;;;;;5088319;27;20393;-72
2022/10/14 03:21:56;;;;;;;1999.90;999.90;;;;;;;;;;5102143;27;20403;-73
2022/10/14 03:24:25;;;;;;;1999.90;999.90;;;;;;;;;;5073492;27;20421;-76
2022/10/14 03:27:13;;;;;;;1999.90;999.90;;;;;;;;;;5090328;27;20432;-73
2022/10/14 03:29:43;;;;;;;1999.90;999.90;;;;;;;;;;5069217;27;20497;-73
2022/10/14 03:32:16;;;;;;;1999.90;999.90;;;;;;;;;;5088421;27;20379;-73
2022/10/14 03:35:09;;;;;;;1999.90;999.90;;;;;;;;;;5073216;27;20425;-73
2022/10/14 03:37:38;;;;;;;1999.90;999.90;;;;;;;;;;5066507;27;20435;-73
2022/10/14 03:40:07;;;;;;;1999.90;999.90;;;;;;;;;;5068253;27;20391;-73
2022/10/14 03:42:35;;;;;;;1999.90;999.90;;;;;;;;;;5074761;27;20937;-73
2022/10/14 03:45:03;;;;;;;1999.90;999.90;;;;;;;;;;5099579;27;20402;-73
2022/10/14 03:47:32;;;;;;;1999.90;999.90;;;;;;;;;;5104414;27;20458;-72
2022/10/14 03:50:04;;;;;;;1999.90;999.90;;;;;;;;;;5082083;27;20381;-73
2022/10/14 03:52:47;;;;;;;1999.90;999.90;;;;;;;;;;5086116;27;20404;-75
2022/10/14 03:55:28;;;;;;;1999.90;999.90;;;;;;;;;;5121505;27;20872;-74
2022/10/14 03:57:57;;;;;;;1999.90;999.90;;;;;;;;;;5103387;27;20416;-75
2022/10/14 04:00:26;;;;;;;1999.90;999.90;;;;;;;;;;5104156;27;20432;-75
2022/10/14 04:03:08;;;;;;;1999.90;999.90;;;;;;;;;;5090559;27;20934;-76
2022/10/14 04:05:40;;;;;;;1999.90;999.90;;;;;;;;;;5088880;27;20396;-75
2022/10/14 04:08:17;;;;;;;1999.90;999.90;;;;;;;;;;5106362;27;20390;-74
2022/10/14 04:10:55;;;;;;;1999.90;999.90;;;;;;;;;;5086485;27;20472;-74
2022/10/14 04:13:24;;;;;;;1999.90;999.90;;;;;;;;;;5113308;27;20365;-74
2022/10/14 04:15:52;;;;;;;1999.90;999.90;;;;;;;;;;5124035;27;20437;-73
2022/10/14 04:18:28;;;;;;;1999.90;999.90;;;;;;;;;;5122950;27;20382;-74
2022/10/14 04:20:59;;;;;;;1999.90;999.90;;;;;;;;;;5093849;27;20373;-75
2022/10/14 04:23:29;;;;;;;1999.90;999.90;;;;;;;;;;5104197;27;20445;-75
2022/10/14 04:26:04;;;;;;;1999.90;999.90;;;;;;;;;;5100420;27;20418;-75
2022/10/14 04:28:32;;;;;;;1999.90;999.90;;;;;;;;;;5104911;27;20397;-75
2022/10/14 04:31:08;;;;;;;1999.90;999.90;;;;;;;;;;5102316;27;20872;-74
2022/10/14 04:33:48;;;;;;;1999.90;999.90;;;;;;;;;;5102949;27;20444;-75
2022/10/14 04:36:23;;;;;;;1999.90;999.90;;;;;;;;;;5115600;27;20890;-75
2022/10/14 04:38:52;;;;;;;1999.90;999.90;;;;;;;;;;5101044;27;20439;-75
2022/10/14 04:41:20;;;;;;;1999.90;999.90;;;;;;;;;;5095899;27;20398;-73
2022/10/14 04:43:49;;;;;;;1999.90;999.90;;;;;;;;;;5078354;27;20406;-76
2022/10/14 04:46:24;;;;;;;1999.90;999.90;;;;;;;;;;5080290;27;20377;-75
2022/10/14 04:48:52;;;;;;;1999.90;999.90;;;;;;;;;;5076119;27;20406;-72
2022/10/14 04:51:23;;;;;;;1999.90;999.90;;;;;;;;;;5086866;27;20386;-72
2022/10/14 04:54:21;;;;;;;1999.90;999.90;;;;;;;;;;5098378;27;20728;-72
2022/10/14 04:56:54;;;;;;;1999.90;999.90;;;;;;;;;;5085597;27;21936;-72
2022/10/14 04:59:22;;;;;;;1999.90;999.90;;;;;;;;;;5099197;27;20550;-72
2022/10/14 05:02:00;;;;;;;1999.90;999.90;;;;;;;;;;5080897;27;20465;-73
2022/10/14 05:04:46;;;;;;;1999.90;999.90;;;;;;;;;;5095680;27;20392;-72
2022/10/14 05:07:15;;;;;;;1999.90;999.90;;;;;;;;;;5075169;27;21798;-71
2022/10/14 05:09:46;;;;;;;1999.90;999.90;;;;;;;;;;5096700;27;20513;-72
2022/10/14 05:12:24;;;;;;;1999.90;999.90;;;;;;;;;;5110215;27;20398;-72
2022/10/14 05:14:57;;;;;;;1999.90;999.90;;;;;;;;;;5116652;27;20396;-72
2022/10/14 05:17:35;;;;;;;1999.90;999.90;;;;;;;;;;5098902;27;20423;-73
2022/10/14 05:20:03;;;;;;;1999.90;999.90;;;;;;;;;;5107882;27;20868;-72
2022/10/14 05:22:39;;;;;;;1999.90;999.90;;;;;;;;;;5117701;27;20469;-73
2022/10/14 05:25:08;;;;;;;1999.90;999.90;;;;;;;;;;5101404;27;20976;-71
2022/10/14 05:27:36;;;;;;;1999.90;999.90;;;;;;;;;;5083817;27;20400;-72
2022/10/14 05:30:05;;;;;;;1999.90;999.90;;;;;;;;;;5119514;27;21283;-73
2022/10/14 05:32:37;;;;;;;1999.90;999.90;;;;;;;;;;5097661;27;20413;-73
2022/10/14 05:35:06;;;;;;;1999.90;999.90;;;;;;;;;;5102533;27;20906;-74
2022/10/14 05:37:37;;;;;;;1999.90;999.90;;;;;;;;;;5103742;27;20394;-71
2022/10/14 05:40:08;;;;;;;1999.90;999.90;;;;;;;;;;5100542;27;20394;-73
2022/10/14 05:42:37;;;;;;;1999.90;999.90;;;;;;;;;;5077065;27;20420;-74
2022/10/14 05:45:05;;;;;;;1999.90;999.90;;;;;;;;;;5066716;27;20410;-73
2022/10/14 05:47:36;;;;;;;1999.90;999.90;;;;;;;;;;5070918;27;20437;-73
2022/10/14 05:50:13;;;;;;;1999.90;999.90;;;;;;;;;;5086735;27;20399;-72
2022/10/14 05:52:43;;;;;;;1999.90;999.90;;;;;;;;;;5069547;27;21191;-73
2022/10/14 05:55:18;;;;;;;1999.90;999.90;;;;;;;;;;5071687;27;20487;-73
2022/10/14 05:57:47;;;;;;;1999.90;999.90;;;;;;;;;;5085797;27;20403;-73
2022/10/14 06:00:19;;;;;;;1999.90;999.90;;;;;;;;;;5068544;27;20429;-74
2022/10/14 06:02:58;;;;;;;1999.90;999.90;;;;;;;;;;5065969;27;20957;-72
2022/10/14 06:05:26;;;;;;;1999.90;999.90;;;;;;;;;;5081924;27;21241;-72
2022/10/14 06:07:54;;;;;;;1999.90;999.90;;;;;;;;;;5065003;27;20439;-72
2022/10/14 06:10:23;;;;;;;1999.90;999.90;;;;;;;;;;5082161;27;20446;-72
2022/10/14 06:12:51;;;;;;;1999.90;999.90;;;;;;;;;;5083428;27;20881;-72
2022/10/14 06:15:19;;;;;;;1999.90;999.90;;;;;;;;;;5085867;27;20399;-73
2022/10/14 06:17:47;;;;;;;1999.90;999.90;;;;;;;;;;5070016;27;20397;-73
2022/10/14 06:20:15;;;;;;;1999.90;999.90;;;;;;;;;;5072991;27;20410;-73
2022/10/14 06:22:44;;;;;;;1999.90;999.90;;;;;;;;;;5107243;27;20410;-71
2022/10/14 06:25:12;;;;;;;1999.90;999.90;;;;;;;;;;5085854;27;20383;-75
2022/10/14 06:27:41;;;;;;;1999.90;999.90;;;;;;;;;;5105594;27;20403;-73
2022/10/14 06:30:09;;;;;;;1999.90;999.90;;;;;;;;;;5102773;27;20400;-73
2022/10/14 06:32:37;;;;;;;1999.90;999.90;;;;;;;;;;5083752;27;20387;-73
2022/10/14 06:35:05;;;;;;;1999.90;999.90;;;;;;;;;;5083361;27;20399;-71
2022/10/14 06:37:32;;;;;;;1999.90;999.90;;;;;;;;;;5107440;27;20869;-72
2022/10/14 06:40:00;;;;;;;1999.90;999.90;;;;;;;;;;5090337;27;20423;-72
2022/10/14 06:42:28;;;;;;;1999.90;999.90;;;;;;;;;;5145577;22;20495;-75
2022/10/14 06:44:59;;;;;;;1999.90;999.90;;;;;;;;;;5134113;27;20586;-76
2022/10/14 06:47:28;;;;;;;1999.90;999.90;;;;;;;;;;5167785;27;20409;-77
2022/10/14 06:49:56;;;;;;;1999.90;999.90;;;;;;;;;;5148690;27;20399;-77
2022/10/14 06:52:24;;;;;;;1999.90;999.90;;;;;;;;;;5136944;27;20470;-77
2022/10/14 06:54:51;;;;;;;1999.90;999.90;;;;;;;;;;5136912;27;20785;-77
2022/10/14 06:57:19;;;;;;;1999.90;999.90;;;;;;;;;;5152704;27;20407;-77
2022/10/14 06:59:47;;;;;;;1999.90;999.90;;;;;;;;;;5136092;27;20986;-77
2022/10/14 07:02:17;;;;;;;1999.90;999.90;;;;;;;;;;5136688;27;20750;-77
2022/10/14 07:04:45;;;;;;;1999.90;999.90;;;;;;;;;;5148235;27;20396;-77
2022/10/14 07:07:13;;;;;;;1999.90;999.90;;;;;;;;;;5116847;27;20496;-77
2022/10/14 07:09:40;;;;;;;1999.90;999.90;;;;;;;;;;5137785;27;20411;-77
2022/10/14 07:12:08;;;;;;;1999.90;999.90;;;;;;;;;;5134151;27;20905;-76
2022/10/14 07:14:36;;;;;;;1999.90;999.90;;;;;;;;;;5138410;27;20897;-76
2022/10/14 07:17:04;;;;;;;1999.90;999.90;;;;;;;;;;5154764;27;20447;-76
2022/10/14 07:19:33;;;;;;;1999.90;999.90;;;;;;;;;;5120707;27;20456;-77
2022/10/14 07:22:01;;;;;;;1999.90;999.90;;;;;;;;;;5118053;27;20510;-77
2022/10/14 07:24:29;;;;;;;1999.90;999.90;;;;;;;;;;5135288;27;20398;-78
2022/10/14 07:26:57;;;;;;;1999.90;999.90;;;;;;;;;;5118300;27;20466;-77
2022/10/14 07:29:24;;;;;;;1999.90;999.90;;;;;;;;;;5154705;27;20379;-75
2022/10/14 07:31:52;;;;;;;1999.90;999.90;;;;;;;;;;5134681;27;20383;-74
2022/10/14 07:34:20;;;;;;;1999.90;999.90;;;;;;;;;;5118202;27;20392;-76
2022/10/14 07:36:49;;;;;;;1999.90;999.90;;;;;;;;;;5145383;27;20431;-76
2022/10/14 07:39:17;;;;;;;1999.90;999.90;;;;;;;;;;5135290;27;20511;-76
2022/10/14 07:41:44;;;;;;;1999.90;999.90;;;;;;;;;;5151467;27;20404;-77
2022/10/14 07:44:13;;;;;;;1999.90;999.90;;;;;;;;;;5153587;27;21205;-78
2022/10/14 07:46:42;;;;;;;1999.90;999.90;;;;;;;;;;5138519;27;20408;-77
2022/10/14 07:49:11;;;;;;;1999.90;999.90;;;;;;;;;;5145234;27;20396;-77
2022/10/14 07:51:39;;;;;;;1999.90;999.90;;;;;;;;;;5133101;27;20403;-78
2022/10/14 07:54:12;;;;;;;1999.90;999.90;;;;;;;;;;5152484;27;20471;-78
2022/10/14 07:56:41;;;;;;;1999.90;999.90;;;;;;;;;;5131746;27;20414;-77
2022/10/14 07:59:09;;;;;;;1999.90;999.90;;;;;;;;;;5135653;27;20385;-76
2022/10/14 08:01:37;;;;;;;1999.90;999.90;;;;;;;;;;5153451;27;20388;-76
2022/10/14 08:04:05;;;;;;;1999.90;999.90;;;;;;;;;;5151565;27;20396;-77
2022/10/14 08:06:33;;;;;;;1999.90;999.90;;;;;;;;;;5151933;27;20495;-77
2022/10/14 08:09:00;;;;;;;1999.90;999.90;;;;;;;;;;5156493;27;20427;-76
2022/10/14 08:11:30;;;;;;;1999.90;999.90;;;;;;;;;;5133675;27;20453;-76
2022/10/14 08:13:58;;;;;;;1999.90;999.90;;;;;;;;;;5155398;27;20832;-76
2022/10/14 08:16:26;;;;;;;1999.90;999.90;;;;;;;;;;5141225;27;20396;-77
2022/10/14 08:18:55;;;;;;;1999.90;999.90;;;;;;;;;;5158886;27;20431;-73
2022/10/14 08:21:23;;;;;;;1999.90;999.90;;;;;;;;;;5169723;27;20399;-78
2022/10/14 08:23:51;;;;;;;1999.90;999.90;;;;;;;;;;5137991;27;20396;-77
2022/10/14 08:26:20;;;;;;;1999.90;999.90;;;;;;;;;;5175130;27;20402;-76
2022/10/14 08:28:50;;;;;;;1999.90;999.90;;;;;;;;;;5156005;27;20371;-77
2022/10/14 08:31:18;;;;;;;1999.90;999.90;;;;;;;;;;5150610;27;20471;-77
2022/10/14 08:33:46;;;;;;;1999.90;999.90;;;;;;;;;;5149270;27;21278;-75
2022/10/14 08:36:14;;;;;;;1999.90;999.90;;;;;;;;;;5124867;27;20471;-76
2022/10/14 08:38:42;;;;;;;1999.90;999.90;;;;;;;;;;5127898;27;20440;-76
2022/10/14 08:41:19;;;;;;;1999.90;999.90;;;;;;;;;;5156795;27;20405;-74
2022/10/14 08:43:49;;;;;;;1999.90;999.90;;;;;;;;;;5154552;27;20404;-78
2022/10/14 08:46:21;;;;;;;1999.90;999.90;;;;;;;;;;5134940;27;20394;-77
2022/10/14 08:48:50;;;;;;;1999.90;999.90;;;;;;;;;;5137852;27;20382;-76
2022/10/14 08:51:19;;;;;;;1999.90;999.90;;;;;;;;;;5157188;27;20384;-78
2022/10/14 08:53:49;;;;;;;1999.90;999.90;;;;;;;;;;5135751;27;20398;-78
2022/10/14 08:56:17;;;;;;;1999.90;999.90;;;;;;;;;;5159678;27;20905;-77
2022/10/14 08:58:47;;;;;;;1999.90;999.90;;;;;;;;;;5152874;27;20600;-77
2022/10/14 09:01:19;;;;;;;1999.90;999.90;;;;;;;;;;5134557;27;20522;-77
2022/10/14 09:03:48;;;;;;;1999.90;999.90;;;;;;;;;;5153689;27;20410;-77
2022/10/14 09:06:19;;;;;;;1999.90;999.90;;;;;;;;;;5155212;27;20403;-77
2022/10/14 09:08:48;;;;;;;1999.90;999.90;;;;;;;;;;5154146;27;20418;-76
2022/10/14 09:11:17;;;;;;;1999.90;999.90;;;;;;;;;;5133446;27;20745;-76
2022/10/14 09:13:46;;;;;;;1999.90;999.90;;;;;;;;;;5119139;27;20416;-78
2022/10/14 09:16:17;;;;;;;1999.90;999.90;;;;;;;;;;5151198;27;20429;-78
2022/10/14 09:18:47;;;;;;;1999.90;999.90;;;;;;;;;;5136304;27;20399;-77
2022/10/14 09:21:26;;;;;;;1999.90;999.90;;;;;;;;;;5153028;27;20408;-75
2022/10/14 09:24:15;;;;;;;1999.90;999.90;;;;;;;;;;5155576;27;20868;-78
2022/10/14 09:26:44;;;;;;;1999.90;999.90;;;;;;;;;;5116625;27;20407;-74
2022/10/14 09:29:19;;;;;;;1999.90;999.90;;;;;;;;;;5134869;27;20390;-74
2022/10/14 09:31:47;;;;;;;1999.90;999.90;;;;;;;;;;5136195;27;20402;-78
2022/10/14 09:34:18;;;;;;;1999.90;999.90;;;;;;;;;;5136982;27;20403;-77
2022/10/14 09:36:50;;;;;;;1999.90;999.90;;;;;;;;;;5154107;27;20747;-77
2022/10/14 09:39:22;;;;;;;1999.90;999.90;;;;;;;;;;5155692;27;20408;-77
2022/10/14 09:41:52;;;;;;;1999.90;999.90;;;;;;;;;;5150755;27;20872;-76
2022/10/14 09:44:21;;;;;;;1999.90;999.90;;;;;;;;;;5152166;27;20489;-77
2022/10/14 09:46:51;;;;;;;1999.90;999.90;;;;;;;;;;5132845;27;20465;-76
2022/10/14 09:49:22;;;;;;;1999.90;999.90;;;;;;;;;;5116494;27;20870;-78
2022/10/14 09:51:51;;;;;;;1999.90;999.90;;;;;;;;;;5136531;27;20430;-76
2022/10/14 09:54:22;;;;;;;1999.90;999.90;;;;;;;;;;5134070;27;20566;-76
2022/10/14 09:56:50;;;;;;;1999.90;999.90;;;;;;;;;;5133472;27;20400;-76
2022/10/14 09:59:18;;;;;;;1999.90;999.90;;;;;;;;;;5155412;27;20403;-77
2022/10/14 10:01:50;;;;;;;1999.90;999.90;;;;;;;;;;5134808;27;20463;-76
2022/10/14 10:04:26;;;;;;;1999.90;999.90;;;;;;;;;;5133578;27;20402;-77
2022/10/14 10:06:55;;;;;;;1999.90;999.90;;;;;;;;;;5134411;27;20402;-76
2022/10/14 10:09:24;;;;;;;1999.90;999.90;;;;;;;;;;5158225;27;21178;-76
2022/10/14 10:11:51;;;;;;;1999.90;999.90;;;;;;;;;;5157107;27;20388;-77
2022/10/14 10:14:21;;;;;;;1999.90;999.90;;;;;;;;;;5143129;27;20388;-77
2022/10/14 10:16:50;;;;;;;1999.90;999.90;;;;;;;;;;5139145;27;20426;-77
2022/10/14 10:19:27;;;;;;;1999.90;999.90;;;;;;;;;;5136149;27;20509;-76
2022/10/14 10:22:16;;;;;;;1999.90;999.90;;;;;;;;;;5138666;27;20395;-77
2022/10/14 10:24:50;;;;;;;1999.90;999.90;;;;;;;;;;5156625;27;20383;-77
2022/10/14 10:27:23;;;;;;;1999.90;999.90;;;;;;;;;;5121084;27;20487;-77
2022/10/14 10:29:54;;;;;;;1999.90;999.90;;;;;;;;;;5133086;27;20388;-77
2022/10/14 10:32:29;;;;;;;1999.90;999.90;;;;;;;;;;5151965;27;20394;-75
2022/10/14 10:35:01;;;;;;;1999.90;999.90;;;;;;;;;;5135136;27;21152;-78
2022/10/14 10:37:32;;;;;;;1999.90;999.90;;;;;;;;;;5134011;27;20399;-77
2022/10/14 10:40:19;;;;;;;1999.90;999.90;;;;;;;;;;5133800;27;20392;-76
2022/10/14 10:42:51;;;;;;;1999.90;999.90;;;;;;;;;;5137282;27;20409;-76
2022/10/14 10:45:28;;;;;;;1999.90;999.90;;;;;;;;;;5128196;27;20829;-78
2022/10/14 10:48:06;;;;;;;1999.90;999.90;;;;;;;;;;5133968;27;20401;-78
2022/10/14 10:50:40;;;;;;;1999.90;999.90;;;;;;;;;;5154928;27;20395;-77
2022/10/14 10:53:21;;;;;;;1999.90;999.90;;;;;;;;;;5136513;27;20383;-77
2022/10/14 10:55:54;;;;;;;1999.90;999.90;;;;;;;;;;5147615;27;20387;-78
2022/10/14 10:58:30;;;;;;;1999.90;999.90;;;;;;;;;;5122058;27;20403;-77
2022/10/14 11:01:02;;;;;;;1999.90;999.90;;;;;;;;;;5155655;27;20394;-77
2022/10/14 11:03:36;;;;;;;1999.90;999.90;;;;;;;;;;5150614;27;20909;-76
2022/10/14 11:06:07;;;;;;;1999.90;999.90;;;;;;;;;;5158010;27;20382;-77
2022/10/14 11:12:06;;;;;;;1999.90;999.90;;;;;;;;;;5154883;27;20383;-76
2022/10/14 11:14:45;;;;;;;1999.90;999.90;;;;;;;;;;5152879;27;20397;-77
2022/10/14 11:17:17;;;;;;;1999.90;999.90;;;;;;;;;;5152509;27;21006;-77
2022/10/14 11:19:48;;;;;;;1999.90;999.90;;;;;;;;;;5151777;27;21015;-75
2022/10/14 11:22:22;;;;;;;1999.90;999.90;;;;;;;;;;5135844;27;20390;-76
2022/10/14 11:24:57;;;;;;;1999.90;999.90;;;;;;;;;;5153659;27;20402;-77
2022/10/14 11:27:29;;;;;;;1999.90;999.90;;;;;;;;;;5135857;27;20483;-78
2022/10/14 11:30:15;;;;;;;1999.90;999.90;;;;;;;;;;5137333;27;20410;-77
2022/10/14 11:32:53;;;;;;;1999.90;999.90;;;;;;;;;;5136153;27;20390;-77
2022/10/14 11:35:26;;;;;;;1999.90;999.90;;;;;;;;;;5126028;27;20368;-78
2022/10/14 11:38:02;;;;;;;1999.90;999.90;;;;;;;;;;5131595;27;20902;-76
2022/10/14 11:40:35;;;;;;;1999.90;999.90;;;;;;;;;;5137210;27;20474;-77
2022/10/14 11:43:09;;;;;;;1999.90;999.90;;;;;;;;;;5131740;27;20475;-75
2022/10/14 11:45:45;;;;;;;1999.90;999.90;;;;;;;;;;5152227;27;20416;-76
2022/10/14 11:48:25;;;;;;;1999.90;999.90;;;;;;;;;;5134332;27;20804;-76
2022/10/14 11:50:55;;;;;;;1999.90;999.90;;;;;;;;;;5134371;27;20503;-77
2022/10/14 11:53:27;;;;;;;1999.90;999.90;;;;;;;;;;5153328;27;20448;-77
2022/10/14 11:56:01;;;;;;;1999.90;999.90;;;;;;;;;;5145679;27;20886;-76
2022/10/14 11:58:31;;;;;;;1999.90;999.90;;;;;;;;;;5137139;27;21589;-78
2022/10/14 12:01:01;;;;;;;1999.90;999.90;;;;;;;;;;5157007;27;20237;-77
2022/10/14 12:03:36;;;;;;;1999.90;999.90;;;;;;;;;;5137460;27;20419;-76
2022/10/14 12:06:11;;;;;;;1999.90;999.90;;;;;;;;;;5120505;27;20388;-77
2022/10/14 12:08:42;;;;;;;1999.90;999.90;;;;;;;;;;5153987;27;20467;-77
2022/10/14 12:11:14;;;;;;;1999.90;999.90;;;;;;;;;;5156885;27;20933;-77
2022/10/14 12:13:43;;;;;;;1999.90;999.90;;;;;;;;;;5150854;27;20456;-76
2022/10/14 12:16:13;;;;;;;1999.90;999.90;;;;;;;;;;5154708;27;20405;-76
2022/10/14 12:18:41;;;;;;;1999.90;999.90;;;;;;;;;;5115567;27;20439;-78
2022/10/14 12:21:16;;;;;;;1999.90;999.90;;;;;;;;;;5151258;27;20416;-77
2022/10/14 12:23:47;;;;;;;1999.90;999.90;;;;;;;;;;5133534;27;20380;-75
2022/10/14 12:26:21;;;;;;;1999.90;999.90;;;;;;;;;;5133432;27;20442;-78
2022/10/14 12:28:50;;;;;;;1999.90;999.90;;;;;;;;;;5135033;27;20487;-76
2022/10/14 12:31:34;;;;;;;1999.90;999.90;;;;;;;;;;5132932;27;20442;-74
2022/10/14 12:34:16;;;;;;;1999.90;999.90;;;;;;;;;;5153753;27;20382;-77
2022/10/14 12:36:44;;;;;;;1999.90;999.90;;;;;;;;;;5132224;27;20390;-77
2022/10/14 12:39:21;;;;;;;1999.90;999.90;;;;;;;;;;5132990;27;20497;-77
2022/10/14 12:41:53;;;;;;;1999.90;999.90;;;;;;;;;;5161437;22;20415;-76
2022/10/14 12:44:21;;;;;;;1999.90;999.90;;;;;;;;;;5094672;27;20999;-75
2022/10/14 12:46:51;;;;;;;1999.90;999.90;;;;;;;;;;5081158;28;20387;-76
2022/10/14 12:49:20;;;;;;;1999.90;999.90;;;;;;;;;;5085735;28;20392;-75
2022/10/14 12:51:52;;;;;;;1999.90;999.90;;;;;;;;;;5083915;28;20391;-75
2022/10/14 12:54:22;;;;;;;1999.90;999.90;;;;;;;;;;5084410;28;20380;-75
2022/10/14 12:56:57;;;;;;;1999.90;999.90;;;;;;;;;;5084339;28;20392;-76
2022/10/14 12:59:28;;;;;;;1999.90;999.90;;;;;;;;;;5085576;28;20388;-74
2022/10/14 13:01:57;;;;;;;1999.90;999.90;;;;;;;;;;5101446;27;20407;-75
2022/10/14 13:04:26;;;;;;;1999.90;999.90;;;;;;;;;;5085128;28;20514;-75
2022/10/14 13:07:27;;;;;;;1999.90;999.90;;;;;;;;;;5085593;28;20415;-75
2022/10/14 13:10:26;;;;;;;1999.90;999.90;;;;;;;;;;5082831;28;20376;-75
2022/10/14 13:12:55;;;;;;;1999.90;999.90;;;;;;;;;;5061708;28;20508;-74
2022/10/14 13:15:41;;;;;;;1999.90;999.90;;;;;;;;;;5078805;28;20398;-76
2022/10/14 13:18:24;;;;;;;1999.90;999.90;;;;;;;;;;5083400;27;20523;-75
2022/10/14 13:20:52;;;;;;;1999.90;999.90;;;;;;;;;;5071555;27;20489;-76
2022/10/14 13:23:34;;;;;;;1999.90;999.90;;;;;;;;;;5089918;27;20494;-74
2022/10/14 13:26:10;;;;;;;1999.90;999.90;;;;;;;;;;5069223;27;20391;-75
2022/10/14 13:28:42;;;;;;;1999.90;999.90;;;;;;;;;;5080718;28;20393;-75
2022/10/14 13:31:12;;;;;;;1999.90;999.90;;;;;;;;;;5096507;27;20549;-75
2022/10/14 13:33:43;;;;;;;1999.90;999.90;;;;;;;;;;5072629;27;20403;-75
2022/10/14 13:36:13;;;;;;;1999.90;999.90;;;;;;;;;;5070271;27;20394;-75
2022/10/14 13:38:43;;;;;;;1999.90;999.90;;;;;;;;;;5073457;28;20945;-74
2022/10/14 13:41:14;;;;;;;1999.90;999.90;;;;;;;;;;5080359;28;20411;-75
2022/10/14 13:43:44;;;;;;;1999.90;999.90;;;;;;;;;;5098575;27;20241;-75
2022/10/14 13:46:14;;;;;;;1999.90;999.90;;;;;;;;;;5082510;28;20322;-75
2022/10/14 13:48:43;;;;;;;1999.90;999.90;;;;;;;;;;5100785;27;20227;-76
2022/10/14 13:51:21;;;;;;;1999.90;999.90;;;;;;;;;;5099470;27;20223;-76
2022/10/14 13:54:09;;;;;;;1999.90;999.90;;;;;;;;;;5098725;27;20251;-77
2022/10/14 13:56:37;;;;;;;1999.90;999.90;;;;;;;;;;5100299;27;20401;-76
2022/10/14 13:59:17;;;;;;;1999.90;999.90;;;;;;;;;;5083726;28;20235;-75
2022/10/14 14:02:11;;;;;;;1999.90;999.90;;;;;;;;;;5079413;28;20392;-74
2022/10/14 14:04:39;;;;;;;1999.90;999.90;;;;;;;;;;5097936;27;20415;-77
2022/10/14 14:07:12;;;;;;;1999.90;999.90;;;;;;;;;;5081621;28;20234;-74
2022/10/14 14:10:01;;;;;;;1999.90;999.90;;;;;;;;;;5098776;27;20222;-75
2022/10/14 14:12:29;;;;;;;1999.90;999.90;;;;;;;;;;5079915;28;20346;-76
2022/10/14 14:14:59;;;;;;;1999.90;999.90;;;;;;;;;;5080589;28;20228;-75
2022/10/14 14:17:30;;;;;;;1999.90;999.90;;;;;;;;;;5059851;28;21025;-76
2022/10/14 14:19:58;;;;;;;1999.90;999.90;;;;;;;;;;5091278;28;20282;-76
2022/10/14 14:22:27;;;;;;;1999.90;999.90;;;;;;;;;;5081150;27;21227;-75
2022/10/14 14:25:11;;;;;;;1999.90;999.90;;;;;;;;;;5096548;27;20403;-75
2022/10/14 14:28:00;;;;;;;1999.90;999.90;;;;;;;;;;5057927;27;20766;-78
2022/10/14 14:30:30;;;;;;;1999.90;999.90;;;;;;;;;;5080113;27;20257;-76